sensor_id;sensor_type;location;lat;lon;timestamp;P1;durP1;ratioP1;P2;durP2;ratioP2
35496;SDS011;21609;49.298;6.844;2023-02-28T00:01:22;0.35;;;0.32;;
35496;SDS011;21609;49.298;6.844;2023-02-28T00:03:48;0.40;;;0.40;;
35496;SDS011;21609;49.298;6.844;2023-02-28T00:06:14;0.68;;;0.52;;
35496;SDS011;21609;49.298;6.844;2023-02-28T00:08:39;0.40;;;0.40;;
35496;SDS011;21609;49.298;6.844;2023-02-28T00:11:06;0.30;;;0.28;;
35496;SDS011;21609;49.298;6.844;2023-02-28T00:13:34;0.40;;;0.40;;
35496;SDS011;21609;49.298;6.844;2023-02-28T00:16:03;1.48;;;0.50;;
35496;SDS011;21609;49.298;6.844;2023-02-28T00:18:30;0.30;;;0.30;;
35496;SDS011;21609;49.298;6.844;2023-02-28T00:20:56;0.75;;;0.43;;
35496;SDS011;21609;49.298;6.844;2023-02-28T00:23:22;0.50;;;0.40;;
35496;SDS011;21609;49.298;6.844;2023-02-28T00:25:48;0.73;;;0.40;;
35496;SDS011;21609;49.298;6.844;2023-02-28T00:28:14;1.00;;;0.60;;
35496;SDS011;21609;49.298;6.844;2023-02-28T00:30:40;0.70;;;0.40;;
35496;SDS011;21609;49.298;6.844;2023-02-28T00:33:05;0.40;;;0.40;;
35496;SDS011;21609;49.298;6.844;2023-02-28T00:35:31;0.93;;;0.50;;
35496;SDS011;21609;49.298;6.844;2023-02-28T00:37:56;0.63;;;0.30;;
35496;SDS011;21609;49.298;6.844;2023-02-28T00:40:22;0.57;;;0.40;;
35496;SDS011;21609;49.298;6.844;2023-02-28T00:42:48;0.73;;;0.40;;
35496;SDS011;21609;49.298;6.844;2023-02-28T00:45:13;0.40;;;0.38;;
35496;SDS011;21609;49.298;6.844;2023-02-28T00:47:39;0.40;;;0.40;;
35496;SDS011;21609;49.298;6.844;2023-02-28T00:50:04;0.28;;;0.28;;
35496;SDS011;21609;49.298;6.844;2023-02-28T00:52:31;0.50;;;0.50;;
35496;SDS011;21609;49.298;6.844;2023-02-28T00:54:56;0.32;;;0.25;;
35496;SDS011;21609;49.298;6.844;2023-02-28T00:57:22;0.50;;;0.50;;
35496;SDS011;21609;49.298;6.844;2023-02-28T00:59:48;0.45;;;0.40;;
35496;SDS011;21609;49.298;6.844;2023-02-28T01:02:13;0.30;;;0.30;;
35496;SDS011;21609;49.298;6.844;2023-02-28T01:04:39;0.40;;;0.40;;
35496;SDS011;21609;49.298;6.844;2023-02-28T01:07:04;0.35;;;0.28;;
35496;SDS011;21609;49.298;6.844;2023-02-28T01:09:30;0.50;;;0.50;;
35496;SDS011;21609;49.298;6.844;2023-02-28T01:11:56;0.95;;;0.43;;
35496;SDS011;21609;49.298;6.844;2023-02-28T01:14:21;0.50;;;0.30;;
35496;SDS011;21609;49.298;6.844;2023-02-28T01:16:47;0.30;;;0.30;;
35496;SDS011;21609;49.298;6.844;2023-02-28T01:19:13;1.55;;;0.70;;
35496;SDS011;21609;49.298;6.844;2023-02-28T01:21:38;0.30;;;0.30;;
35496;SDS011;21609;49.298;6.844;2023-02-28T01:24:04;0.30;;;0.30;;
35496;SDS011;21609;49.298;6.844;2023-02-28T01:26:30;0.30;;;0.30;;
35496;SDS011;21609;49.298;6.844;2023-02-28T01:28:56;0.32;;;0.30;;
35496;SDS011;21609;49.298;6.844;2023-02-28T01:31:22;0.28;;;0.28;;
35496;SDS011;21609;49.298;6.844;2023-02-28T01:33:48;0.55;;;0.25;;
35496;SDS011;21609;49.298;6.844;2023-02-28T01:36:15;0.40;;;0.28;;
35496;SDS011;21609;49.298;6.844;2023-02-28T01:38:43;0.52;;;0.32;;
35496;SDS011;21609;49.298;6.844;2023-02-28T01:41:11;0.73;;;0.52;;
35496;SDS011;21609;49.298;6.844;2023-02-28T01:46:10;0.70;;;0.47;;
35496;SDS011;21609;49.298;6.844;2023-02-28T01:48:38;0.60;;;0.50;;
35496;SDS011;21609;49.298;6.844;2023-02-28T01:51:10;0.77;;;0.40;;
35496;SDS011;21609;49.298;6.844;2023-02-28T01:53:43;0.30;;;0.30;;
35496;SDS011;21609;49.298;6.844;2023-02-28T01:56:12;0.38;;;0.35;;
35496;SDS011;21609;49.298;6.844;2023-02-28T01:58:45;0.73;;;0.60;;
35496;SDS011;21609;49.298;6.844;2023-02-28T02:01:15;0.50;;;0.40;;
35496;SDS011;21609;49.298;6.844;2023-02-28T02:03:46;0.25;;;0.25;;
35496;SDS011;21609;49.298;6.844;2023-02-28T02:06:42;0.98;;;0.40;;
35496;SDS011;21609;49.298;6.844;2023-02-28T02:09:08;0.40;;;0.30;;
35496;SDS011;21609;49.298;6.844;2023-02-28T02:11:34;0.50;;;0.40;;
35496;SDS011;21609;49.298;6.844;2023-02-28T02:14:05;0.40;;;0.40;;
35496;SDS011;21609;49.298;6.844;2023-02-28T02:25:39;0.47;;;0.47;;
35496;SDS011;21609;49.298;6.844;2023-02-28T02:31:30;0.52;;;0.50;;
35496;SDS011;21609;49.298;6.844;2023-02-28T02:37:13;0.55;;;0.50;;
35496;SDS011;21609;49.298;6.844;2023-02-28T02:42:31;0.68;;;0.50;;
35496;SDS011;21609;49.298;6.844;2023-02-28T02:45:09;0.45;;;0.32;;
35496;SDS011;21609;49.298;6.844;2023-02-28T02:48:00;0.30;;;0.30;;
35496;SDS011;21609;49.298;6.844;2023-02-28T02:50:32;0.22;;;0.22;;
35496;SDS011;21609;49.298;6.844;2023-02-28T02:53:02;0.75;;;0.63;;
35496;SDS011;21609;49.298;6.844;2023-02-28T02:55:31;0.30;;;0.30;;
35496;SDS011;21609;49.298;6.844;2023-02-28T02:58:01;0.52;;;0.30;;
35496;SDS011;21609;49.298;6.844;2023-02-28T03:00:31;0.17;;;0.17;;
35496;SDS011;21609;49.298;6.844;2023-02-28T03:05:27;0.40;;;0.40;;
35496;SDS011;21609;49.298;6.844;2023-02-28T03:07:59;1.13;;;0.32;;
35496;SDS011;21609;49.298;6.844;2023-02-28T03:13:42;0.35;;;0.30;;
35496;SDS011;21609;49.298;6.844;2023-02-28T03:24:24;0.60;;;0.50;;
35496;SDS011;21609;49.298;6.844;2023-02-28T03:26:55;0.43;;;0.43;;
35496;SDS011;21609;49.298;6.844;2023-02-28T03:34:39;0.40;;;0.40;;
35496;SDS011;21609;49.298;6.844;2023-02-28T03:37:12;0.32;;;0.32;;
35496;SDS011;21609;49.298;6.844;2023-02-28T03:39:44;0.70;;;0.50;;
35496;SDS011;21609;49.298;6.844;2023-02-28T03:42:21;0.60;;;0.50;;
35496;SDS011;21609;49.298;6.844;2023-02-28T03:44:57;0.50;;;0.50;;
35496;SDS011;21609;49.298;6.844;2023-02-28T03:47:29;0.30;;;0.30;;
35496;SDS011;21609;49.298;6.844;2023-02-28T03:50:11;0.20;;;0.20;;
35496;SDS011;21609;49.298;6.844;2023-02-28T03:55:45;0.20;;;0.20;;
35496;SDS011;21609;49.298;6.844;2023-02-28T04:00:45;0.30;;;0.30;;
35496;SDS011;21609;49.298;6.844;2023-02-28T04:03:14;0.37;;;0.37;;
35496;SDS011;21609;49.298;6.844;2023-02-28T04:05:47;0.40;;;0.38;;
35496;SDS011;21609;49.298;6.844;2023-02-28T04:08:18;0.20;;;0.20;;
35496;SDS011;21609;49.298;6.844;2023-02-28T04:10:45;0.40;;;0.40;;
35496;SDS011;21609;49.298;6.844;2023-02-28T04:13:23;0.65;;;0.50;;
35496;SDS011;21609;49.298;6.844;2023-02-28T04:15:48;0.20;;;0.20;;
35496;SDS011;21609;49.298;6.844;2023-02-28T04:18:14;0.50;;;0.40;;
35496;SDS011;21609;49.298;6.844;2023-02-28T04:20:39;0.30;;;0.30;;
35496;SDS011;21609;49.298;6.844;2023-02-28T04:23:05;0.50;;;0.50;;
35496;SDS011;21609;49.298;6.844;2023-02-28T04:25:30;0.45;;;0.30;;
35496;SDS011;21609;49.298;6.844;2023-02-28T04:27:56;0.57;;;0.50;;
35496;SDS011;21609;49.298;6.844;2023-02-28T04:30:21;0.35;;;0.35;;
35496;SDS011;21609;49.298;6.844;2023-02-28T04:32:47;0.88;;;0.60;;
35496;SDS011;21609;49.298;6.844;2023-02-28T04:35:12;0.25;;;0.25;;
35496;SDS011;21609;49.298;6.844;2023-02-28T04:37:38;1.05;;;0.52;;
35496;SDS011;21609;49.298;6.844;2023-02-28T04:40:04;0.40;;;0.40;;
35496;SDS011;21609;49.298;6.844;2023-02-28T04:42:30;0.30;;;0.30;;
35496;SDS011;21609;49.298;6.844;2023-02-28T04:45:00;0.75;;;0.30;;
35496;SDS011;21609;49.298;6.844;2023-02-28T04:47:27;0.45;;;0.45;;
35496;SDS011;21609;49.298;6.844;2023-02-28T04:49:52;0.40;;;0.40;;
35496;SDS011;21609;49.298;6.844;2023-02-28T04:52:18;0.73;;;0.43;;
35496;SDS011;21609;49.298;6.844;2023-02-28T04:54:44;0.30;;;0.30;;
35496;SDS011;21609;49.298;6.844;2023-02-28T04:57:10;0.60;;;0.50;;
35496;SDS011;21609;49.298;6.844;2023-02-28T04:59:35;0.30;;;0.30;;
35496;SDS011;21609;49.298;6.844;2023-02-28T05:02:01;0.77;;;0.50;;
35496;SDS011;21609;49.298;6.844;2023-02-28T05:04:31;0.40;;;0.32;;
35496;SDS011;21609;49.298;6.844;2023-02-28T05:07:01;0.55;;;0.45;;
35496;SDS011;21609;49.298;6.844;2023-02-28T05:09:26;0.30;;;0.30;;
35496;SDS011;21609;49.298;6.844;2023-02-28T05:11:53;0.52;;;0.40;;
35496;SDS011;21609;49.298;6.844;2023-02-28T05:14:18;0.30;;;0.30;;
35496;SDS011;21609;49.298;6.844;2023-02-28T05:16:44;1.13;;;0.50;;
35496;SDS011;21609;49.298;6.844;2023-02-28T05:19:10;0.47;;;0.28;;
35496;SDS011;21609;49.298;6.844;2023-02-28T05:21:39;0.40;;;0.40;;
35496;SDS011;21609;49.298;6.844;2023-02-28T05:24:07;0.30;;;0.30;;
35496;SDS011;21609;49.298;6.844;2023-02-28T05:26:36;2.53;;;0.52;;
35496;SDS011;21609;49.298;6.844;2023-02-28T05:29:03;0.38;;;0.38;;
35496;SDS011;21609;49.298;6.844;2023-02-28T05:31:28;0.88;;;0.50;;
35496;SDS011;21609;49.298;6.844;2023-02-28T05:33:54;0.28;;;0.28;;
35496;SDS011;21609;49.298;6.844;2023-02-28T05:36:20;0.47;;;0.40;;
35496;SDS011;21609;49.298;6.844;2023-02-28T05:38:49;1.65;;;0.60;;
35496;SDS011;21609;49.298;6.844;2023-02-28T05:41:15;0.30;;;0.30;;
35496;SDS011;21609;49.298;6.844;2023-02-28T05:43:41;0.50;;;0.50;;
35496;SDS011;21609;49.298;6.844;2023-02-28T05:46:08;0.40;;;0.40;;
35496;SDS011;21609;49.298;6.844;2023-02-28T05:48:35;0.40;;;0.40;;
35496;SDS011;21609;49.298;6.844;2023-02-28T05:51:02;0.40;;;0.30;;
35496;SDS011;21609;49.298;6.844;2023-02-28T05:53:28;2.63;;;0.50;;
35496;SDS011;21609;49.298;6.844;2023-02-28T05:55:54;0.70;;;0.30;;
35496;SDS011;21609;49.298;6.844;2023-02-28T05:58:20;0.80;;;0.57;;
35496;SDS011;21609;49.298;6.844;2023-02-28T06:00:46;0.40;;;0.40;;
35496;SDS011;21609;49.298;6.844;2023-02-28T06:03:13;0.47;;;0.40;;
35496;SDS011;21609;49.298;6.844;2023-02-28T06:05:38;0.38;;;0.38;;
35496;SDS011;21609;49.298;6.844;2023-02-28T06:08:04;0.65;;;0.60;;
35496;SDS011;21609;49.298;6.844;2023-02-28T06:10:32;1.55;;;0.52;;
35496;SDS011;21609;49.298;6.844;2023-02-28T06:13:01;0.40;;;0.40;;
35496;SDS011;21609;49.298;6.844;2023-02-28T06:15:27;0.50;;;0.50;;
35496;SDS011;21609;49.298;6.844;2023-02-28T06:17:53;1.00;;;0.68;;
35496;SDS011;21609;49.298;6.844;2023-02-28T06:20:21;0.50;;;0.40;;
35496;SDS011;21609;49.298;6.844;2023-02-28T06:22:47;0.82;;;0.68;;
35496;SDS011;21609;49.298;6.844;2023-02-28T06:25:13;0.30;;;0.30;;
35496;SDS011;21609;49.298;6.844;2023-02-28T06:27:38;0.65;;;0.52;;
35496;SDS011;21609;49.298;6.844;2023-02-28T06:30:04;1.45;;;0.40;;
35496;SDS011;21609;49.298;6.844;2023-02-28T06:32:30;0.75;;;0.68;;
35496;SDS011;21609;49.298;6.844;2023-02-28T06:34:55;0.43;;;0.40;;
35496;SDS011;21609;49.298;6.844;2023-02-28T06:37:22;1.65;;;0.40;;
35496;SDS011;21609;49.298;6.844;2023-02-28T06:39:51;0.50;;;0.50;;
35496;SDS011;21609;49.298;6.844;2023-02-28T06:42:17;1.05;;;0.70;;
35496;SDS011;21609;49.298;6.844;2023-02-28T06:44:42;1.02;;;0.70;;
35496;SDS011;21609;49.298;6.844;2023-02-28T06:47:08;0.65;;;0.60;;
35496;SDS011;21609;49.298;6.844;2023-02-28T06:49:34;0.55;;;0.55;;
35496;SDS011;21609;49.298;6.844;2023-02-28T06:52:00;0.40;;;0.40;;
35496;SDS011;21609;49.298;6.844;2023-02-28T06:54:26;0.30;;;0.30;;
35496;SDS011;21609;49.298;6.844;2023-02-28T06:56:52;0.60;;;0.43;;
35496;SDS011;21609;49.298;6.844;2023-02-28T06:59:19;0.40;;;0.40;;
35496;SDS011;21609;49.298;6.844;2023-02-28T07:01:45;0.80;;;0.40;;
35496;SDS011;21609;49.298;6.844;2023-02-28T07:04:11;0.30;;;0.30;;
35496;SDS011;21609;49.298;6.844;2023-02-28T07:06:38;0.88;;;0.80;;
35496;SDS011;21609;49.298;6.844;2023-02-28T07:09:03;0.98;;;0.60;;
35496;SDS011;21609;49.298;6.844;2023-02-28T07:11:29;0.43;;;0.40;;
35496;SDS011;21609;49.298;6.844;2023-02-28T07:13:55;0.90;;;0.60;;
35496;SDS011;21609;49.298;6.844;2023-02-28T07:16:21;0.98;;;0.50;;
35496;SDS011;21609;49.298;6.844;2023-02-28T07:18:47;0.50;;;0.50;;
35496;SDS011;21609;49.298;6.844;2023-02-28T07:21:13;0.22;;;0.22;;
35496;SDS011;21609;49.298;6.844;2023-02-28T07:23:39;0.50;;;0.50;;
35496;SDS011;21609;49.298;6.844;2023-02-28T07:26:10;0.80;;;0.40;;
35496;SDS011;21609;49.298;6.844;2023-02-28T07:28:39;3.33;;;0.40;;
35496;SDS011;21609;49.298;6.844;2023-02-28T07:31:07;0.82;;;0.60;;
35496;SDS011;21609;49.298;6.844;2023-02-28T07:33:33;0.32;;;0.32;;
35496;SDS011;21609;49.298;6.844;2023-02-28T07:36:02;1.35;;;0.85;;
35496;SDS011;21609;49.298;6.844;2023-02-28T07:38:34;0.65;;;0.57;;
35496;SDS011;21609;49.298;6.844;2023-02-28T07:41:00;1.15;;;0.60;;
35496;SDS011;21609;49.298;6.844;2023-02-28T07:43:29;0.40;;;0.40;;
35496;SDS011;21609;49.298;6.844;2023-02-28T07:45:55;0.50;;;0.50;;
35496;SDS011;21609;49.298;6.844;2023-02-28T07:48:20;0.88;;;0.40;;
35496;SDS011;21609;49.298;6.844;2023-02-28T07:50:54;0.57;;;0.55;;
35496;SDS011;21609;49.298;6.844;2023-02-28T07:53:20;0.47;;;0.47;;
35496;SDS011;21609;49.298;6.844;2023-02-28T07:55:46;0.70;;;0.70;;
35496;SDS011;21609;49.298;6.844;2023-02-28T07:58:11;0.47;;;0.35;;
35496;SDS011;21609;49.298;6.844;2023-02-28T08:00:37;1.25;;;0.45;;
35496;SDS011;21609;49.298;6.844;2023-02-28T08:03:03;0.40;;;0.40;;
35496;SDS011;21609;49.298;6.844;2023-02-28T08:05:28;0.57;;;0.50;;
35496;SDS011;21609;49.298;6.844;2023-02-28T08:07:55;1.02;;;0.40;;
35496;SDS011;21609;49.298;6.844;2023-02-28T08:10:21;2.00;;;0.90;;
35496;SDS011;21609;49.298;6.844;2023-02-28T08:12:47;0.50;;;0.43;;
35496;SDS011;21609;49.298;6.844;2023-02-28T08:15:13;1.02;;;0.80;;
35496;SDS011;21609;49.298;6.844;2023-02-28T08:17:38;0.40;;;0.40;;
35496;SDS011;21609;49.298;6.844;2023-02-28T08:20:04;1.40;;;0.75;;
35496;SDS011;21609;49.298;6.844;2023-02-28T08:22:30;0.50;;;0.50;;
35496;SDS011;21609;49.298;6.844;2023-02-28T08:24:56;0.85;;;0.60;;
35496;SDS011;21609;49.298;6.844;2023-02-28T08:27:21;1.58;;;0.98;;
35496;SDS011;21609;49.298;6.844;2023-02-28T08:29:47;0.57;;;0.55;;
35496;SDS011;21609;49.298;6.844;2023-02-28T08:32:12;0.50;;;0.40;;
35496;SDS011;21609;49.298;6.844;2023-02-28T08:34:38;0.50;;;0.50;;
35496;SDS011;21609;49.298;6.844;2023-02-28T08:37:05;0.73;;;0.68;;
35496;SDS011;21609;49.298;6.844;2023-02-28T08:39:33;0.40;;;0.40;;
35496;SDS011;21609;49.298;6.844;2023-02-28T08:42:00;0.77;;;0.50;;
35496;SDS011;21609;49.298;6.844;2023-02-28T08:44:27;0.93;;;0.50;;
35496;SDS011;21609;49.298;6.844;2023-02-28T08:46:52;0.80;;;0.80;;
35496;SDS011;21609;49.298;6.844;2023-02-28T08:49:18;0.80;;;0.55;;
35496;SDS011;21609;49.298;6.844;2023-02-28T08:51:44;3.22;;;1.77;;
35496;SDS011;21609;49.298;6.844;2023-02-28T08:54:09;1.42;;;0.50;;
35496;SDS011;21609;49.298;6.844;2023-02-28T08:56:37;1.05;;;0.85;;
35496;SDS011;21609;49.298;6.844;2023-02-28T08:59:03;1.40;;;0.77;;
35496;SDS011;21609;49.298;6.844;2023-02-28T09:01:29;1.95;;;0.80;;
35496;SDS011;21609;49.298;6.844;2023-02-28T09:03:56;1.95;;;0.80;;
35496;SDS011;21609;49.298;6.844;2023-02-28T09:06:23;1.13;;;0.90;;
35496;SDS011;21609;49.298;6.844;2023-02-28T09:08:50;1.98;;;0.70;;
35496;SDS011;21609;49.298;6.844;2023-02-28T09:11:17;0.50;;;0.50;;
35496;SDS011;21609;49.298;6.844;2023-02-28T09:13:44;3.03;;;1.00;;
35496;SDS011;21609;49.298;6.844;2023-02-28T09:16:12;0.60;;;0.50;;
35496;SDS011;21609;49.298;6.844;2023-02-28T09:18:39;4.43;;;0.95;;
35496;SDS011;21609;49.298;6.844;2023-02-28T09:21:06;0.73;;;0.50;;
35496;SDS011;21609;49.298;6.844;2023-02-28T09:23:33;0.55;;;0.40;;
35496;SDS011;21609;49.298;6.844;2023-02-28T09:26:00;0.70;;;0.70;;
35496;SDS011;21609;49.298;6.844;2023-02-28T09:28:25;0.82;;;0.50;;
35496;SDS011;21609;49.298;6.844;2023-02-28T09:30:52;1.05;;;0.70;;
35496;SDS011;21609;49.298;6.844;2023-02-28T09:33:19;1.70;;;0.65;;
35496;SDS011;21609;49.298;6.844;2023-02-28T09:35:47;2.08;;;0.70;;
35496;SDS011;21609;49.298;6.844;2023-02-28T09:38:13;1.17;;;0.47;;
35496;SDS011;21609;49.298;6.844;2023-02-28T09:40:52;2.92;;;0.82;;
35496;SDS011;21609;49.298;6.844;2023-02-28T09:43:25;2.63;;;0.93;;
35496;SDS011;21609;49.298;6.844;2023-02-28T09:45:59;5.82;;;0.88;;
35496;SDS011;21609;49.298;6.844;2023-02-28T09:48:37;1.13;;;0.85;;
35496;SDS011;21609;49.298;6.844;2023-02-28T09:51:14;1.38;;;0.52;;
35496;SDS011;21609;49.298;6.844;2023-02-28T09:54:00;1.52;;;0.90;;
35496;SDS011;21609;49.298;6.844;2023-02-28T10:01:39;1.75;;;0.80;;
35496;SDS011;21609;49.298;6.844;2023-02-28T10:06:59;1.05;;;0.70;;
35496;SDS011;21609;49.298;6.844;2023-02-28T10:09:30;1.30;;;0.60;;
35496;SDS011;21609;49.298;6.844;2023-02-28T10:12:04;1.00;;;0.70;;
35496;SDS011;21609;49.298;6.844;2023-02-28T10:14:32;2.35;;;0.95;;
35496;SDS011;21609;49.298;6.844;2023-02-28T10:16:59;1.13;;;0.80;;
35496;SDS011;21609;49.298;6.844;2023-02-28T10:22:17;0.52;;;0.52;;
35496;SDS011;21609;49.298;6.844;2023-02-28T10:24:45;2.80;;;0.88;;
35496;SDS011;21609;49.298;6.844;2023-02-28T10:27:18;0.77;;;0.70;;
35496;SDS011;21609;49.298;6.844;2023-02-28T10:29:47;1.00;;;0.77;;
35496;SDS011;21609;49.298;6.844;2023-02-28T10:32:21;2.03;;;0.80;;
35496;SDS011;21609;49.298;6.844;2023-02-28T10:34:52;1.63;;;0.80;;
35496;SDS011;21609;49.298;6.844;2023-02-28T10:37:22;0.95;;;0.80;;
35496;SDS011;21609;49.298;6.844;2023-02-28T10:39:48;0.70;;;0.57;;
35496;SDS011;21609;49.298;6.844;2023-02-28T10:42:18;1.20;;;1.10;;
35496;SDS011;21609;49.298;6.844;2023-02-28T10:45:07;0.68;;;0.60;;
35496;SDS011;21609;49.298;6.844;2023-02-28T10:47:55;1.10;;;0.77;;
35496;SDS011;21609;49.298;6.844;2023-02-28T10:50:27;1.30;;;0.90;;
35496;SDS011;21609;49.298;6.844;2023-02-28T10:53:05;1.67;;;1.23;;
35496;SDS011;21609;49.298;6.844;2023-02-28T10:56:14;2.13;;;1.42;;
35496;SDS011;21609;49.298;6.844;2023-02-28T11:01:48;2.67;;;1.92;;
35496;SDS011;21609;49.298;6.844;2023-02-28T11:04:20;2.78;;;1.85;;
35496;SDS011;21609;49.298;6.844;2023-02-28T11:07:01;5.78;;;2.45;;
35496;SDS011;21609;49.298;6.844;2023-02-28T11:09:35;3.50;;;2.38;;
35496;SDS011;21609;49.298;6.844;2023-02-28T11:12:04;2.65;;;1.85;;
35496;SDS011;21609;49.298;6.844;2023-02-28T11:14:33;2.85;;;1.83;;
35496;SDS011;21609;49.298;6.844;2023-02-28T11:17:21;2.03;;;1.73;;
35496;SDS011;21609;49.298;6.844;2023-02-28T11:19:53;2.58;;;2.38;;
35496;SDS011;21609;49.298;6.844;2023-02-28T11:22:26;3.00;;;1.83;;
35496;SDS011;21609;49.298;6.844;2023-02-28T11:24:59;2.73;;;1.47;;
35496;SDS011;21609;49.298;6.844;2023-02-28T11:29:55;4.25;;;1.88;;
35496;SDS011;21609;49.298;6.844;2023-02-28T11:32:21;2.30;;;1.98;;
35496;SDS011;21609;49.298;6.844;2023-02-28T11:37:37;4.57;;;2.15;;
35496;SDS011;21609;49.298;6.844;2023-02-28T11:40:14;1.65;;;1.42;;
35496;SDS011;21609;49.298;6.844;2023-02-28T11:42:45;1.90;;;1.50;;
35496;SDS011;21609;49.298;6.844;2023-02-28T11:45:21;2.70;;;2.05;;
35496;SDS011;21609;49.298;6.844;2023-02-28T11:50:48;2.60;;;1.60;;
35496;SDS011;21609;49.298;6.844;2023-02-28T11:59:09;6.03;;;1.77;;
35496;SDS011;21609;49.298;6.844;2023-02-28T12:10:20;1.75;;;1.42;;
35496;SDS011;21609;49.298;6.844;2023-02-28T12:13:01;2.10;;;1.90;;
35496;SDS011;21609;49.298;6.844;2023-02-28T12:18:19;1.77;;;1.65;;
35496;SDS011;21609;49.298;6.844;2023-02-28T12:20:53;1.67;;;1.52;;
35496;SDS011;21609;49.298;6.844;2023-02-28T12:23:38;1.13;;;1.02;;
35496;SDS011;21609;49.298;6.844;2023-02-28T12:26:38;1.50;;;1.20;;
35496;SDS011;21609;49.298;6.844;2023-02-28T12:31:36;3.60;;;1.77;;
35496;SDS011;21609;49.298;6.844;2023-02-28T12:34:08;1.63;;;1.08;;
35496;SDS011;21609;49.298;6.844;2023-02-28T12:36:38;2.08;;;1.58;;
35496;SDS011;21609;49.298;6.844;2023-02-28T12:39:20;1.70;;;1.60;;
35496;SDS011;21609;49.298;6.844;2023-02-28T12:41:55;3.13;;;1.83;;
35496;SDS011;21609;49.298;6.844;2023-02-28T12:44:32;19.85;;;2.90;;
35496;SDS011;21609;49.298;6.844;2023-02-28T12:47:06;12.68;;;2.28;;
35496;SDS011;21609;49.298;6.844;2023-02-28T12:49:39;7.55;;;2.38;;
35496;SDS011;21609;49.298;6.844;2023-02-28T12:55:10;5.55;;;2.08;;
35496;SDS011;21609;49.298;6.844;2023-02-28T13:00:32;5.57;;;1.70;;
35496;SDS011;21609;49.298;6.844;2023-02-28T13:05:56;3.80;;;2.22;;
35496;SDS011;21609;49.298;6.844;2023-02-28T13:08:50;3.72;;;1.98;;
35496;SDS011;21609;49.298;6.844;2023-02-28T13:11:40;4.83;;;1.77;;
35496;SDS011;21609;49.298;6.844;2023-02-28T13:16:55;3.67;;;1.95;;
35496;SDS011;21609;49.298;6.844;2023-02-28T13:19:44;1.83;;;1.58;;
35496;SDS011;21609;49.298;6.844;2023-02-28T13:22:36;3.30;;;1.63;;
35496;SDS011;21609;49.298;6.844;2023-02-28T13:27:52;3.97;;;2.03;;
35496;SDS011;21609;49.298;6.844;2023-02-28T13:33:31;5.47;;;1.70;;
35496;SDS011;21609;49.298;6.844;2023-02-28T13:36:22;3.03;;;1.73;;
35496;SDS011;21609;49.298;6.844;2023-02-28T13:38:55;2.65;;;1.52;;
35496;SDS011;21609;49.298;6.844;2023-02-28T13:46:34;3.97;;;1.70;;
35496;SDS011;21609;49.298;6.844;2023-02-28T13:51:48;2.28;;;1.35;;
35496;SDS011;21609;49.298;6.844;2023-02-28T14:04:58;2.55;;;1.55;;
35496;SDS011;21609;49.298;6.844;2023-02-28T14:07:56;3.78;;;1.70;;
35496;SDS011;21609;49.298;6.844;2023-02-28T14:10:33;1.70;;;1.60;;
35496;SDS011;21609;49.298;6.844;2023-02-28T14:15:56;3.00;;;1.33;;
35496;SDS011;21609;49.298;6.844;2023-02-28T14:18:28;2.90;;;1.67;;
35496;SDS011;21609;49.298;6.844;2023-02-28T14:21:01;2.70;;;1.40;;
35496;SDS011;21609;49.298;6.844;2023-02-28T14:23:36;2.30;;;1.83;;
35496;SDS011;21609;49.298;6.844;2023-02-28T14:38:21;3.85;;;1.77;;
35496;SDS011;21609;49.298;6.844;2023-02-28T14:40:51;2.65;;;2.35;;
35496;SDS011;21609;49.298;6.844;2023-02-28T14:43:26;3.28;;;1.40;;
35496;SDS011;21609;49.298;6.844;2023-02-28T14:46:02;2.28;;;2.03;;
35496;SDS011;21609;49.298;6.844;2023-02-28T14:48:30;3.58;;;1.70;;
35496;SDS011;21609;49.298;6.844;2023-02-28T14:50:57;2.83;;;2.08;;
35496;SDS011;21609;49.298;6.844;2023-02-28T14:53:25;2.40;;;1.60;;
35496;SDS011;21609;49.298;6.844;2023-02-28T14:55:55;1.45;;;1.35;;
35496;SDS011;21609;49.298;6.844;2023-02-28T15:00:50;1.60;;;1.50;;
35496;SDS011;21609;49.298;6.844;2023-02-28T15:05:50;2.38;;;1.67;;
35496;SDS011;21609;49.298;6.844;2023-02-28T15:08:22;4.22;;;1.83;;
35496;SDS011;21609;49.298;6.844;2023-02-28T15:10:52;2.03;;;1.35;;
35496;SDS011;21609;49.298;6.844;2023-02-28T15:13:23;2.20;;;1.90;;
35496;SDS011;21609;49.298;6.844;2023-02-28T15:16:00;1.40;;;1.30;;
35496;SDS011;21609;49.298;6.844;2023-02-28T15:18:30;5.15;;;1.70;;
35496;SDS011;21609;49.298;6.844;2023-02-28T15:21:08;2.80;;;1.95;;
35496;SDS011;21609;49.298;6.844;2023-02-28T15:23:38;2.20;;;1.48;;
35496;SDS011;21609;49.298;6.844;2023-02-28T15:26:09;3.13;;;1.97;;
35496;SDS011;21609;49.298;6.844;2023-02-28T15:28:41;3.20;;;1.80;;
35496;SDS011;21609;49.298;6.844;2023-02-28T15:34:18;6.28;;;1.90;;
35496;SDS011;21609;49.298;6.844;2023-02-28T15:36:46;5.28;;;2.47;;
35496;SDS011;21609;49.298;6.844;2023-02-28T15:39:18;2.83;;;2.10;;
35496;SDS011;21609;49.298;6.844;2023-02-28T15:41:46;1.42;;;1.33;;
35496;SDS011;21609;49.298;6.844;2023-02-28T15:46:54;1.52;;;1.38;;
35496;SDS011;21609;49.298;6.844;2023-02-28T15:49:36;3.22;;;1.98;;
35496;SDS011;21609;49.298;6.844;2023-02-28T15:52:15;2.38;;;1.60;;
35496;SDS011;21609;49.298;6.844;2023-02-28T15:54:43;2.00;;;1.60;;
35496;SDS011;21609;49.298;6.844;2023-02-28T15:57:13;1.88;;;1.70;;
35496;SDS011;21609;49.298;6.844;2023-02-28T15:59:44;2.03;;;1.75;;
35496;SDS011;21609;49.298;6.844;2023-02-28T16:02:20;1.75;;;1.55;;
35496;SDS011;21609;49.298;6.844;2023-02-28T16:07:35;2.35;;;2.00;;
35496;SDS011;21609;49.298;6.844;2023-02-28T16:10:03;1.55;;;1.40;;
35496;SDS011;21609;49.298;6.844;2023-02-28T16:12:30;2.30;;;1.98;;
35496;SDS011;21609;49.298;6.844;2023-02-28T16:14:59;2.53;;;2.10;;
35496;SDS011;21609;49.298;6.844;2023-02-28T16:17:29;1.75;;;1.65;;
35496;SDS011;21609;49.298;6.844;2023-02-28T16:19:57;1.95;;;1.73;;
35496;SDS011;21609;49.298;6.844;2023-02-28T16:22:24;3.25;;;1.75;;
35496;SDS011;21609;49.298;6.844;2023-02-28T16:24:51;2.20;;;2.00;;
35496;SDS011;21609;49.298;6.844;2023-02-28T16:29:49;4.15;;;1.95;;
35496;SDS011;21609;49.298;6.844;2023-02-28T16:32:15;2.10;;;1.90;;
35496;SDS011;21609;49.298;6.844;2023-02-28T16:34:41;2.28;;;1.90;;
35496;SDS011;21609;49.298;6.844;2023-02-28T16:37:11;1.60;;;1.50;;
35496;SDS011;21609;49.298;6.844;2023-02-28T16:39:42;2.15;;;1.98;;
35496;SDS011;21609;49.298;6.844;2023-02-28T16:42:15;2.72;;;1.73;;
35496;SDS011;21609;49.298;6.844;2023-02-28T16:44:46;1.95;;;1.75;;
35496;SDS011;21609;49.298;6.844;2023-02-28T16:47:12;1.92;;;1.52;;
35496;SDS011;21609;49.298;6.844;2023-02-28T16:49:38;2.30;;;2.10;;
35496;SDS011;21609;49.298;6.844;2023-02-28T16:52:06;2.17;;;1.98;;
35496;SDS011;21609;49.298;6.844;2023-02-28T16:54:33;2.70;;;1.55;;
35496;SDS011;21609;49.298;6.844;2023-02-28T16:56:58;2.15;;;1.65;;
35496;SDS011;21609;49.298;6.844;2023-02-28T16:59:24;2.58;;;2.33;;
35496;SDS011;21609;49.298;6.844;2023-02-28T17:01:52;1.30;;;1.20;;
35496;SDS011;21609;49.298;6.844;2023-02-28T17:04:18;2.95;;;1.67;;
35496;SDS011;21609;49.298;6.844;2023-02-28T17:06:44;2.30;;;2.10;;
35496;SDS011;21609;49.298;6.844;2023-02-28T17:09:20;1.92;;;1.77;;
35496;SDS011;21609;49.298;6.844;2023-02-28T17:11:47;1.98;;;1.65;;
35496;SDS011;21609;49.298;6.844;2023-02-28T17:14:14;1.52;;;1.42;;
35496;SDS011;21609;49.298;6.844;2023-02-28T17:16:40;2.00;;;1.80;;
35496;SDS011;21609;49.298;6.844;2023-02-28T17:19:09;1.90;;;1.80;;
35496;SDS011;21609;49.298;6.844;2023-02-28T17:21:39;1.92;;;1.83;;
35496;SDS011;21609;49.298;6.844;2023-02-28T17:24:07;1.65;;;1.55;;
35496;SDS011;21609;49.298;6.844;2023-02-28T17:26:33;1.75;;;1.65;;
35496;SDS011;21609;49.298;6.844;2023-02-28T17:28:59;2.50;;;1.70;;
35496;SDS011;21609;49.298;6.844;2023-02-28T17:31:25;2.28;;;1.88;;
35496;SDS011;21609;49.298;6.844;2023-02-28T17:33:52;1.73;;;1.63;;
35496;SDS011;21609;49.298;6.844;2023-02-28T17:36:23;1.65;;;1.55;;